createdAt,value
2019-05-07T00:01:19.806Z,12.78
2019-05-07T00:03:50.242Z,12.72
2019-05-07T00:06:22.917Z,12.73
2019-05-07T00:08:52.987Z,12.68
2019-05-07T00:11:23.420Z,12.79
2019-05-07T00:13:53.908Z,12.70
2019-05-07T00:16:24.341Z,12.66
2019-05-07T00:18:54.819Z,12.53
2019-05-07T00:21:25.312Z,12.58
2019-05-07T00:23:55.753Z,12.63
2019-05-07T00:26:26.232Z,12.54
2019-05-07T00:28:56.665Z,12.67
2019-05-07T00:31:27.144Z,12.53
2019-05-07T00:33:57.645Z,12.38
2019-05-07T00:36:42.717Z,12.36
2019-05-07T00:39:43.975Z,12.32
2019-05-07T00:42:22.026Z,12.26
2019-05-07T00:45:19.667Z,12.31
2019-05-07T00:47:42.676Z,12.28
2019-05-07T00:50:19.085Z,12.23
2019-05-07T00:52:49.670Z,12.17
2019-05-07T00:55:20.129Z,12.13
2019-05-07T00:57:52.493Z,12.12
2019-05-07T01:00:22.980Z,12.06
2019-05-07T01:02:53.468Z,12.07
2019-05-07T01:05:24.212Z,12.15
2019-05-07T01:07:54.691Z,12.03
2019-05-07T01:10:25.127Z,12.01
2019-05-07T01:12:55.612Z,12.03
2019-05-07T01:15:31.019Z,12.05
2019-05-07T01:17:58.232Z,11.92
2019-05-07T01:20:28.662Z,12.04
2019-05-07T01:22:59.097Z,12.09
2019-05-07T01:25:29.615Z,12.13
2019-05-07T01:28:02.463Z,12.00
2019-05-07T01:30:32.684Z,12.01
2019-05-07T01:33:09.521Z,12.06
2019-05-07T01:35:57.462Z,12.05
2019-05-07T01:38:27.944Z,12.04
2019-05-07T01:40:58.681Z,12.02
2019-05-07T01:43:29.143Z,12.04
2019-05-07T01:45:59.640Z,12.06
2019-05-07T01:48:32.213Z,12.02
2019-05-07T01:51:03.471Z,11.94
2019-05-07T01:53:33.998Z,11.88
2019-05-07T01:56:04.491Z,12.00
2019-05-07T01:58:35.035Z,12.03
2019-05-07T02:01:05.627Z,11.93
2019-05-07T02:04:03.809Z,11.88
2019-05-07T02:06:59.020Z,11.79
2019-05-07T02:09:35.581Z,11.90
2019-05-07T02:12:28.134Z,11.91
2019-05-07T02:14:58.583Z,11.81
2019-05-07T02:17:29.125Z,11.69
2019-05-07T02:19:59.632Z,11.70
2019-05-07T02:22:31.997Z,11.77
2019-05-07T02:25:03.317Z,11.77
2019-05-07T02:27:33.864Z,11.75
2019-05-07T02:30:04.840Z,11.80
2019-05-07T02:32:35.252Z,11.64
2019-05-07T02:35:06.195Z,11.71
2019-05-07T02:37:56.858Z,11.68
2019-05-07T02:40:34.161Z,11.73
2019-05-07T02:43:04.759Z,11.61
2019-05-07T02:46:22.402Z,11.58
2019-05-07T02:48:54.501Z,11.64
2019-05-07T02:51:33.402Z,11.61
2019-05-07T02:54:23.776Z,11.57
2019-05-07T02:56:53.427Z,11.56
2019-05-07T02:59:23.987Z,11.46
2019-05-07T03:01:54.626Z,11.43
2019-05-07T03:04:25.469Z,11.35
2019-05-07T03:06:56.063Z,11.40
2019-05-07T03:09:26.645Z,11.37
2019-05-07T03:11:57.579Z,11.33
2019-05-07T03:14:28.064Z,11.30
2019-05-07T03:16:59.012Z,11.31
2019-05-07T03:19:29.879Z,11.25
2019-05-07T03:22:04.048Z,11.21
2019-05-07T03:24:52.969Z,11.13
2019-05-07T03:27:23.873Z,11.35
2019-05-07T03:30:17.302Z,11.25
2019-05-07T03:32:58.196Z,11.26
2019-05-07T03:35:57.180Z,11.21
2019-05-07T03:38:27.726Z,11.20
2019-05-07T03:40:58.184Z,11.11
2019-05-07T03:43:28.719Z,11.15
2019-05-07T03:46:13.997Z,11.07
2019-05-07T03:48:44.702Z,11.10
2019-05-07T03:51:15.185Z,11.07
2019-05-07T03:53:45.630Z,11.11
2019-05-07T03:56:16.082Z,11.11
2019-05-07T03:58:46.528Z,11.14
2019-05-07T04:01:17.121Z,11.18
2019-05-07T04:03:47.560Z,11.30
2019-05-07T04:06:18.038Z,11.24
2019-05-07T04:08:48.517Z,11.16
2019-05-07T04:11:18.950Z,11.15
2019-05-07T04:13:49.389Z,11.12
2019-05-07T04:16:19.835Z,11.27
2019-05-07T04:18:52.872Z,11.19
2019-05-07T04:21:23.252Z,11.18
2019-05-07T04:24:13.627Z,11.18
2019-05-07T04:26:47.123Z,11.17
2019-05-07T04:29:17.915Z,11.22
2019-05-07T04:31:48.345Z,11.23
2019-05-07T04:34:24.225Z,11.30
2019-05-07T04:36:54.664Z,11.24
2019-05-07T04:39:25.155Z,11.27
2019-05-07T04:41:55.605Z,11.45
2019-05-07T04:44:26.131Z,11.61
2019-05-07T04:46:56.577Z,11.54
2019-05-07T04:49:27.092Z,11.54
2019-05-07T04:52:19.425Z,11.71
2019-05-07T04:54:52.719Z,11.73
2019-05-07T04:57:28.254Z,11.90
2019-05-07T05:00:02.936Z,11.91
2019-05-07T05:02:52.657Z,12.00
2019-05-07T05:05:23.844Z,12.11
2019-05-07T05:07:54.649Z,12.29
2019-05-07T05:10:25.423Z,12.33
2019-05-07T05:12:55.854Z,12.46
2019-05-07T05:15:26.617Z,12.56
2019-05-07T05:17:57.099Z,12.75
2019-05-07T05:20:52.562Z,12.71
2019-05-07T05:23:47.863Z,12.85
2019-05-07T05:26:18.347Z,12.63
2019-05-07T05:28:48.917Z,12.82
2019-05-07T05:31:19.508Z,12.99
2019-05-07T05:33:50.023Z,13.13
2019-05-07T05:36:22.169Z,12.94
2019-05-07T05:38:53.558Z,12.21
2019-05-07T05:41:25.545Z,12.67
2019-05-07T05:44:06.259Z,12.79
2019-05-07T05:46:36.800Z,12.79
2019-05-07T05:49:07.413Z,12.77
2019-05-07T05:52:09.049Z,12.76
2019-05-07T05:54:58.365Z,12.70
2019-05-07T05:57:48.213Z,12.65
2019-05-07T06:00:53.938Z,12.72
2019-05-07T06:03:43.087Z,12.65
2019-05-07T06:06:29.568Z,12.77
2019-05-07T06:09:21.933Z,12.78
2019-05-07T06:12:03.816Z,12.72
2019-05-07T06:14:43.363Z,12.82
2019-05-07T06:17:35.539Z,12.87
2019-05-07T06:20:34.844Z,12.93
2019-05-07T06:23:33.083Z,12.94
2019-05-07T06:26:05.159Z,13.07
2019-05-07T06:28:35.423Z,13.23
2019-05-07T06:31:06.021Z,13.50
2019-05-07T06:33:36.651Z,13.59
2019-05-07T06:36:07.117Z,13.79
2019-05-07T06:38:44.065Z,14.03
2019-05-07T06:41:41.753Z,14.36
2019-05-07T06:44:16.500Z,14.28
2019-05-07T06:46:50.013Z,14.24
2019-05-07T06:49:22.298Z,14.55
2019-05-07T06:51:52.985Z,14.56
2019-05-07T06:54:23.346Z,14.95
2019-05-07T06:56:53.729Z,15.20
2019-05-07T06:59:35.369Z,15.14
2019-05-07T07:02:36.928Z,15.15
2019-05-07T07:05:25.824Z,15.26
2019-05-07T07:08:05.299Z,15.24
2019-05-07T07:10:53.230Z,15.33
2019-05-07T07:13:24.568Z,14.73
2019-05-07T07:15:55.035Z,15.49
2019-05-07T07:18:25.564Z,15.36
2019-05-07T07:20:56.100Z,15.40
2019-05-07T07:23:26.479Z,15.28
2019-05-07T07:25:56.923Z,15.31
2019-05-07T07:28:27.426Z,15.41
2019-05-07T07:31:22.258Z,15.48
2019-05-07T07:33:52.701Z,15.59
2019-05-07T07:36:24.811Z,15.49
2019-05-07T07:38:55.227Z,15.53
2019-05-07T07:41:34.110Z,15.79
2019-05-07T07:44:04.748Z,15.61
2019-05-07T07:46:35.155Z,15.68
2019-05-07T07:49:11.014Z,15.81
2019-05-07T07:51:42.034Z,15.96
2019-05-07T07:54:10.358Z,16.20
2019-05-07T07:56:56.337Z,16.38
2019-05-07T07:59:44.206Z,16.33
2019-05-07T08:02:32.062Z,16.35
2019-05-07T08:05:02.174Z,16.26
2019-05-07T08:07:33.144Z,16.30
2019-05-07T08:10:03.793Z,16.34
2019-05-07T08:12:34.348Z,16.35
2019-05-07T08:15:16.752Z,16.44
2019-05-07T08:17:37.805Z,16.41
2019-05-07T08:20:08.958Z,16.32
2019-05-07T08:22:39.319Z,16.33
2019-05-07T08:25:12.349Z,16.53
2019-05-07T08:27:42.240Z,16.73
2019-05-07T08:30:16.180Z,16.70
2019-05-07T08:33:03.609Z,16.59
2019-05-07T08:35:44.261Z,16.49
2019-05-07T08:38:14.915Z,16.43
2019-05-07T08:40:48.965Z,16.40
2019-05-07T08:43:21.801Z,16.27
2019-05-07T08:46:12.017Z,16.15
2019-05-07T08:48:45.781Z,16.35
2019-05-07T08:51:16.285Z,16.29
2019-05-07T08:53:48.393Z,16.17
2019-05-07T08:56:22.450Z,16.24
2019-05-07T08:58:54.758Z,16.48
2019-05-07T09:01:27.221Z,16.36
2019-05-07T09:03:57.731Z,16.50
2019-05-07T09:06:34.003Z,16.42
2019-05-07T09:09:12.819Z,16.63
2019-05-07T09:11:42.827Z,16.75
2019-05-07T09:14:13.404Z,16.63
2019-05-07T09:16:43.941Z,16.60
2019-05-07T09:19:14.434Z,16.59
2019-05-07T09:21:44.855Z,16.61
2019-05-07T09:24:15.257Z,16.46
2019-05-07T09:26:52.350Z,16.49
2019-05-07T09:29:36.549Z,16.49
2019-05-07T09:32:29.000Z,16.61
2019-05-07T09:35:02.307Z,16.83
2019-05-07T09:37:33.291Z,16.74
2019-05-07T09:40:03.708Z,16.79
2019-05-07T09:42:35.315Z,16.84
2019-05-07T09:45:06.065Z,17.04
2019-05-07T09:47:37.402Z,17.23
2019-05-07T09:50:09.034Z,17.23
2019-05-07T09:52:39.583Z,17.21
2019-05-07T09:55:16.594Z,17.18
2019-05-07T09:57:43.028Z,17.48
2019-05-07T10:00:14.676Z,17.45
2019-05-07T10:02:47.474Z,17.52
2019-05-07T10:05:22.759Z,17.58
2019-05-07T10:07:53.576Z,17.51
2019-05-07T10:10:24.206Z,17.37
2019-05-07T10:13:03.985Z,17.40
2019-05-07T10:15:34.794Z,17.45
2019-05-07T10:18:15.747Z,16.90
2019-05-07T10:20:46.387Z,17.29
2019-05-07T10:23:23.389Z,17.30
2019-05-07T10:25:54.638Z,17.26
2019-05-07T10:28:25.415Z,17.36
2019-05-07T10:30:56.089Z,17.50
2019-05-07T10:33:26.757Z,17.16
2019-05-07T10:35:57.351Z,16.97
2019-05-07T10:38:28.042Z,16.90
2019-05-07T10:40:58.784Z,16.51
2019-05-07T10:43:29.472Z,16.75
2019-05-07T10:46:21.677Z,16.83
2019-05-07T10:49:05.057Z,16.66
2019-05-07T10:51:35.545Z,16.73
2019-05-07T10:54:06.558Z,16.91
2019-05-07T10:56:37.254Z,16.91
2019-05-07T10:59:07.958Z,16.81
2019-05-07T11:01:59.708Z,16.61
2019-05-07T11:04:40.290Z,16.71
2019-05-07T11:07:02.067Z,16.44
2019-05-07T11:09:32.949Z,16.52
2019-05-07T11:12:03.475Z,16.41
2019-05-07T11:14:34.038Z,16.67
2019-05-07T11:17:26.572Z,16.76
2019-05-07T11:19:57.286Z,16.87
2019-05-07T11:22:27.811Z,16.78
2019-05-07T11:24:58.340Z,16.90
2019-05-07T11:27:33.043Z,17.00
2019-05-07T11:30:03.871Z,17.04
2019-05-07T11:32:34.310Z,17.21
2019-05-07T11:35:05.042Z,17.38
2019-05-07T11:37:35.504Z,17.50
2019-05-07T11:40:06.331Z,17.21
2019-05-07T11:43:05.591Z,17.15
2019-05-07T11:46:02.091Z,17.01
2019-05-07T11:48:36.348Z,17.16
2019-05-07T11:51:25.083Z,16.73
2019-05-07T11:54:12.642Z,16.73
2019-05-07T11:56:43.463Z,16.93
2019-05-07T11:59:13.973Z,16.37
2019-05-07T12:01:48.314Z,16.12
2019-05-07T12:04:18.899Z,16.28
2019-05-07T12:06:49.340Z,16.35
2019-05-07T12:09:21.642Z,16.21
2019-05-07T12:11:52.170Z,16.39
2019-05-07T12:14:31.354Z,16.18
2019-05-07T12:16:55.354Z,15.89
2019-05-07T12:19:25.790Z,15.40
2019-05-07T12:21:56.302Z,15.60
2019-05-07T12:24:26.762Z,15.26
2019-05-07T12:26:57.388Z,15.28
2019-05-07T12:29:28.265Z,15.35
2019-05-07T12:32:16.269Z,15.60
2019-05-07T12:34:53.679Z,15.66
2019-05-07T12:37:24.138Z,15.71
2019-05-07T12:39:55.069Z,15.95
2019-05-07T12:42:25.702Z,16.04
2019-05-07T12:44:56.211Z,16.06
2019-05-07T12:47:26.739Z,15.90
2019-05-07T12:49:57.231Z,15.85
2019-05-07T12:52:33.451Z,16.06
2019-05-07T12:55:15.842Z,16.16
2019-05-07T12:57:55.063Z,15.90
2019-05-07T13:00:46.893Z,15.83
2019-05-07T13:03:24.518Z,15.91
2019-05-07T13:05:55.628Z,15.78
2019-05-07T13:08:29.350Z,15.22
2019-05-07T13:10:59.822Z,15.53
2019-05-07T13:13:35.032Z,15.41
2019-05-07T13:16:06.356Z,15.52
2019-05-07T13:18:36.819Z,15.45
2019-05-07T13:21:11.783Z,15.47
2019-05-07T13:23:42.158Z,15.61
2019-05-07T13:26:15.468Z,15.39
2019-05-07T13:28:47.945Z,15.51
2019-05-07T13:31:22.747Z,15.47
2019-05-07T13:33:54.461Z,15.28
2019-05-07T13:36:25.694Z,15.35
2019-05-07T13:39:03.741Z,15.49
2019-05-07T13:41:57.671Z,15.27
2019-05-07T13:44:52.092Z,15.02
2019-05-07T13:47:34.383Z,14.98
2019-05-07T13:50:05.498Z,14.86
2019-05-07T13:52:36.191Z,14.71
2019-05-07T13:55:07.479Z,13.99
2019-05-07T13:57:41.669Z,14.68
2019-05-07T14:00:21.771Z,14.67
2019-05-07T14:02:52.081Z,14.73
2019-05-07T14:05:24.272Z,13.91
2019-05-07T14:07:54.875Z,14.32
2019-05-07T14:10:26.156Z,14.37
2019-05-07T14:13:07.656Z,14.38
2019-05-07T14:15:35.390Z,14.38
2019-05-07T14:18:07.148Z,14.54
2019-05-07T14:20:37.674Z,14.52
2019-05-07T14:23:09.146Z,14.57
2019-05-07T14:25:41.840Z,14.47
2019-05-07T14:28:11.866Z,14.26
2019-05-07T14:30:42.384Z,14.24
2019-05-07T14:33:18.806Z,14.13
2019-05-07T14:36:07.312Z,13.97
2019-05-07T14:38:42.616Z,13.96
2019-05-07T14:41:13.185Z,13.73
2019-05-07T14:44:01.004Z,13.76
2019-05-07T14:46:44.598Z,13.81
2019-05-07T14:49:03.854Z,13.88
2019-05-07T14:51:34.402Z,13.66
2019-05-07T14:54:05.103Z,13.73
2019-05-07T14:56:35.875Z,13.77
2019-05-07T14:59:06.546Z,13.63
2019-05-07T15:01:37.030Z,13.49
2019-05-07T15:04:07.936Z,13.53
2019-05-07T15:06:38.488Z,13.57
2019-05-07T15:09:09.100Z,13.42
2019-05-07T15:11:39.685Z,13.31
2019-05-07T15:14:12.043Z,13.51
2019-05-07T15:16:42.876Z,12.94
2019-05-07T15:19:13.410Z,13.03
2019-05-07T15:21:43.983Z,13.08
2019-05-07T15:24:15.532Z,12.81
2019-05-07T15:26:47.715Z,12.86
2019-05-07T15:29:18.301Z,12.92
2019-05-07T15:32:00.044Z,12.80
2019-05-07T15:34:29.778Z,12.44
2019-05-07T15:37:01.667Z,12.42
2019-05-07T15:39:32.828Z,12.55
2019-05-07T15:42:03.581Z,12.58
2019-05-07T15:44:34.023Z,12.64
2019-05-07T15:47:09.350Z,12.64
2019-05-07T15:49:41.724Z,12.59
2019-05-07T15:52:18.117Z,12.52
2019-05-07T15:54:48.556Z,12.55
2019-05-07T15:57:24.157Z,12.46
2019-05-07T16:00:05.580Z,12.43
2019-05-07T16:02:39.667Z,12.56
2019-05-07T16:05:13.503Z,12.65
2019-05-07T16:07:45.390Z,12.42
2019-05-07T16:10:16.045Z,12.61
2019-05-07T16:12:46.663Z,12.54
2019-05-07T16:15:17.301Z,12.45
2019-05-07T16:17:53.596Z,12.17
2019-05-07T16:20:24.039Z,12.22
2019-05-07T16:23:10.855Z,12.21
2019-05-07T16:25:30.110Z,12.12
2019-05-07T16:28:02.134Z,12.21
2019-05-07T16:30:32.747Z,12.32
2019-05-07T16:33:03.236Z,12.15
2019-05-07T16:35:33.724Z,12.04
2019-05-07T16:38:04.568Z,12.00
2019-05-07T16:40:35.062Z,12.17
2019-05-07T16:43:05.507Z,12.10
2019-05-07T16:45:35.994Z,11.93
2019-05-07T16:48:06.486Z,12.03
2019-05-07T16:50:37.085Z,12.00
2019-05-07T16:53:07.582Z,11.85
2019-05-07T16:55:38.028Z,11.91
2019-05-07T16:58:25.322Z,11.81
2019-05-07T17:01:00.176Z,11.78
2019-05-07T17:03:36.468Z,11.70
2019-05-07T17:06:06.917Z,11.69
2019-05-07T17:08:51.832Z,11.61
2019-05-07T17:11:22.698Z,11.78
2019-05-07T17:13:53.222Z,11.70
2019-05-07T17:16:24.046Z,11.81
2019-05-07T17:18:54.546Z,11.09
2019-05-07T17:21:25.153Z,11.68
2019-05-07T17:23:55.741Z,11.73
2019-05-07T17:26:26.213Z,11.61
2019-05-07T17:28:56.662Z,11.71
2019-05-07T17:31:27.156Z,11.66
2019-05-07T17:33:57.642Z,11.63
2019-05-07T17:36:28.149Z,11.72
2019-05-07T17:38:58.669Z,11.72
2019-05-07T17:41:29.242Z,11.73
2019-05-07T17:43:59.708Z,11.57
2019-05-07T17:46:32.160Z,11.61
2019-05-07T17:49:02.623Z,11.66
2019-05-07T17:51:44.507Z,11.70
2019-05-07T17:54:15.524Z,11.57
2019-05-07T17:56:45.986Z,11.60
2019-05-07T17:59:16.479Z,11.69
2019-05-07T18:01:57.957Z,11.63
2019-05-07T18:04:28.942Z,11.69
2019-05-07T18:07:00.571Z,11.70
2019-05-07T18:09:31.977Z,11.57
2019-05-07T18:12:02.447Z,11.67
2019-05-07T18:14:32.902Z,11.77
2019-05-07T18:17:33.502Z,11.72
2019-05-07T18:20:03.642Z,11.90
2019-05-07T18:22:34.290Z,11.64
2019-05-07T18:25:05.033Z,11.81
2019-05-07T18:27:35.634Z,11.96
2019-05-07T18:30:06.731Z,11.92
2019-05-07T18:32:42.686Z,11.88
2019-05-07T18:35:13.346Z,11.80
2019-05-07T18:37:52.893Z,11.88
2019-05-07T18:40:23.741Z,11.93
2019-05-07T18:42:54.333Z,11.86
2019-05-07T18:45:24.900Z,11.92
2019-05-07T18:47:55.386Z,11.86
2019-05-07T18:50:25.897Z,11.91
2019-05-07T18:52:56.388Z,11.85
2019-05-07T18:55:26.876Z,11.96
2019-05-07T18:57:57.437Z,12.00
2019-05-07T19:00:31.967Z,12.08
2019-05-07T19:03:03.440Z,12.07
2019-05-07T19:05:34.194Z,11.95
2019-05-07T19:08:08.296Z,11.83
2019-05-07T19:10:37.119Z,11.86
2019-05-07T19:13:07.780Z,11.93
2019-05-07T19:15:38.257Z,11.87
2019-05-07T19:18:08.801Z,12.04
2019-05-07T19:20:39.298Z,12.03
2019-05-07T19:23:09.845Z,12.02
2019-05-07T19:25:42.059Z,11.97
2019-05-07T19:28:14.934Z,12.00
2019-05-07T19:30:44.792Z,12.00
2019-05-07T19:33:15.352Z,11.94
2019-05-07T19:35:45.845Z,11.85
2019-05-07T19:38:16.303Z,11.96
2019-05-07T19:40:46.890Z,11.90
2019-05-07T19:43:17.372Z,11.95
2019-05-07T19:45:47.819Z,12.00
2019-05-07T19:48:18.310Z,11.94
2019-05-07T19:50:48.848Z,11.79
2019-05-07T19:53:21.302Z,11.95
2019-05-07T19:56:06.893Z,12.09
2019-05-07T19:58:37.497Z,12.11
2019-05-07T20:01:09.360Z,12.12
2019-05-07T20:03:39.856Z,11.90
2019-05-07T20:06:12.684Z,11.96
2019-05-07T20:08:43.749Z,11.79
2019-05-07T20:11:22.426Z,12.01
2019-05-07T20:13:53.148Z,11.95
2019-05-07T20:16:23.632Z,11.89
2019-05-07T20:18:54.076Z,11.96
2019-05-07T20:21:24.688Z,11.98
2019-05-07T20:23:55.144Z,11.85
2019-05-07T20:26:25.638Z,11.92
2019-05-07T20:28:56.141Z,12.00
2019-05-07T20:31:26.735Z,11.96
2019-05-07T20:33:57.201Z,11.96
2019-05-07T20:36:27.705Z,11.81
2019-05-07T20:38:58.159Z,11.65
2019-05-07T20:41:28.649Z,11.77
2019-05-07T20:43:59.094Z,11.69
2019-05-07T20:46:31.748Z,11.82
2019-05-07T20:49:02.925Z,11.89
2019-05-07T20:51:33.600Z,11.82
2019-05-07T20:54:23.141Z,11.64
2019-05-07T20:56:58.788Z,11.69
2019-05-07T20:59:29.225Z,11.71
2019-05-07T21:01:59.713Z,11.79
2019-05-07T21:04:30.263Z,11.67
2019-05-07T21:07:03.772Z,11.67
2019-05-07T21:09:34.297Z,11.74
2019-05-07T21:12:04.846Z,11.63
2019-05-07T21:14:35.338Z,11.58
2019-05-07T21:17:05.819Z,11.68
2019-05-07T21:19:36.310Z,11.59
2019-05-07T21:22:06.795Z,11.64
2019-05-07T21:24:37.264Z,11.58
2019-05-07T21:27:07.771Z,11.55
2019-05-07T21:29:38.225Z,11.58
2019-05-07T21:32:08.684Z,11.56
2019-05-07T21:34:39.284Z,11.45
2019-05-07T21:37:09.745Z,11.61
2019-05-07T21:39:42.254Z,11.63
2019-05-07T21:42:14.292Z,11.53
2019-05-07T21:44:44.500Z,11.55
2019-05-07T21:47:14.957Z,11.68
2019-05-07T21:49:45.397Z,11.74
2019-05-07T21:52:15.892Z,11.66
2019-05-07T21:54:58.988Z,11.74
2019-05-07T21:57:39.744Z,11.66
2019-05-07T22:00:18.890Z,11.64
2019-05-07T22:02:49.437Z,11.69
2019-05-07T22:05:22.293Z,11.65
2019-05-07T22:07:54.361Z,11.57
2019-05-07T22:10:24.693Z,11.59
2019-05-07T22:12:55.185Z,11.60
2019-05-07T22:15:25.703Z,11.74
2019-05-07T22:17:56.201Z,11.73
2019-05-07T22:20:26.698Z,11.82
2019-05-07T22:22:57.200Z,11.83
2019-05-07T22:25:27.648Z,11.74
2019-05-07T22:27:58.141Z,11.86
2019-05-07T22:30:52.626Z,11.83
2019-05-07T22:33:31.224Z,11.87
2019-05-07T22:36:01.882Z,11.86
2019-05-07T22:38:32.444Z,11.88
2019-05-07T22:41:02.973Z,11.98
2019-05-07T22:43:33.463Z,11.95
2019-05-07T22:46:03.904Z,12.04
2019-05-07T22:48:34.379Z,12.07
2019-05-07T22:51:04.856Z,12.08
2019-05-07T22:53:35.301Z,12.18
2019-05-07T22:56:05.789Z,11.98
2019-05-07T22:58:43.517Z,11.94
2019-05-07T23:01:13.988Z,12.02
2019-05-07T23:03:44.493Z,11.96
2019-05-07T23:06:14.973Z,11.79
2019-05-07T23:08:45.413Z,11.96
2019-05-07T23:11:15.953Z,11.99
2019-05-07T23:13:46.443Z,12.01
2019-05-07T23:16:16.931Z,12.05
2019-05-07T23:18:47.377Z,11.93
2019-05-07T23:21:17.863Z,12.02
2019-05-07T23:23:48.323Z,11.96
2019-05-07T23:26:18.807Z,11.81
2019-05-07T23:28:49.288Z,11.92
2019-05-07T23:31:19.764Z,11.88
2019-05-07T23:33:52.190Z,11.72
2019-05-07T23:36:22.670Z,11.82
2019-05-07T23:38:53.130Z,11.94
2019-05-07T23:41:38.478Z,11.79
2019-05-07T23:44:14.027Z,11.95
2019-05-07T23:46:45.014Z,11.93
2019-05-07T23:49:15.624Z,11.76
2019-05-07T23:51:46.205Z,11.83
2019-05-07T23:54:16.675Z,11.71
2019-05-07T23:56:47.113Z,11.90
2019-05-07T23:59:17.586Z,11.96
